Time;durP1;ratioP1;P1;durP2;ratioP2;P2;SDS_P1;SDS_P2;PMS_P1;PMS_P2;Temp;Humidity;BMP_temperature;BMP_pressure;BME280_temperature;BME280_humidity;BME280_pressure;Samples;Min_cycle;Max_cycle;Signal;HPM_P1;HPM_P2
2023/04/09 00:01:17;;;;;;;15.95;11.55;;;;;9.60;99242.00;;;;5054815;28;20490;-57
2023/04/09 00:03:44;;;;;;;13.07;9.60;;;;;9.60;99240.00;;;;5055021;28;20047;-59
2023/04/09 00:06:11;;;;;;;11.50;8.57;;;;;9.50;99248.00;;;;5054866;28;20059;-60
2023/04/09 00:08:38;;;;;;;13.70;9.30;;;;;9.40;99243.00;;;;5053589;28;20043;-61
2023/04/09 00:11:04;;;;;;;11.93;7.75;;;;;9.40;99238.00;;;;5054741;28;20056;-59
2023/04/09 00:13:31;;;;;;;10.93;7.30;;;;;9.20;99238.00;;;;5055101;28;20490;-59
2023/04/09 00:16:06;;;;;;;10.02;7.57;;;;;9.10;99243.00;;;;5055504;28;20498;-61
2023/04/09 00:18:32;;;;;;;10.38;7.80;;;;;9.10;99237.00;;;;5053196;28;20091;-57
2023/04/09 00:20:59;;;;;;;9.80;6.85;;;;;9.10;99245.00;;;;5053301;28;20045;-61
2023/04/09 00:23:26;;;;;;;11.02;7.50;;;;;9.20;99240.00;;;;5054687;28;20045;-60
2023/04/09 00:25:52;;;;;;;9.30;7.57;;;;;9.20;99241.00;;;;5054578;28;20052;-59
2023/04/09 00:28:18;;;;;;;9.90;7.68;;;;;9.20;99242.00;;;;5054460;28;20048;-58
2023/04/09 00:30:45;;;;;;;10.63;7.60;;;;;9.20;99236.00;;;;5053988;28;20060;-61
2023/04/09 00:33:12;;;;;;;10.88;7.68;;;;;9.10;99243.00;;;;5053250;28;20052;-60
2023/04/09 00:35:38;;;;;;;11.10;7.20;;;;;9.20;99239.00;;;;5054401;28;20060;-61
2023/04/09 00:38:05;;;;;;;11.32;7.45;;;;;9.20;99237.00;;;;5053115;28;20044;-61
2023/04/09 00:40:31;;;;;;;10.88;7.50;;;;;9.20;99234.00;;;;5052885;28;20094;-59
2023/04/09 00:42:58;;;;;;;10.45;7.95;;;;;9.20;99239.00;;;;5054275;28;20065;-59
2023/04/09 00:45:24;;;;;;;9.18;7.25;;;;;9.20;99238.00;;;;5053149;28;20049;-61
2023/04/09 00:47:52;;;;;;;9.48;7.65;;;;;9.10;99231.00;;;;5054173;28;20096;-61
2023/04/09 00:50:19;;;;;;;10.15;7.30;;;;;9.10;99232.00;;;;5053787;28;20041;-61
2023/04/09 00:52:45;;;;;;;9.02;7.05;;;;;9.20;99234.00;;;;5052817;28;20044;-60
2023/04/09 00:55:12;;;;;;;10.07;7.45;;;;;9.30;99226.00;;;;5053031;28;20400;-60
2023/04/09 00:57:39;;;;;;;9.13;7.30;;;;;9.30;99231.00;;;;5036195;28;20045;-60
2023/04/09 01:00:07;;;;;;;10.63;8.00;;;;;9.30;99239.00;;;;5035962;28;20548;-59
2023/04/09 01:02:33;;;;;;;9.70;7.55;;;;;9.30;99228.00;;;;5052526;28;20041;-60
2023/04/09 01:05:00;;;;;;;11.52;7.72;;;;;9.30;99231.00;;;;5052645;28;20139;-59
2023/04/09 01:07:59;;;;;;;9.80;7.43;;;;;9.40;99240.00;;;;5053800;28;20037;-61
2023/04/09 01:10:40;;;;;;;11.45;8.43;;;;;9.40;99229.00;;;;5053396;28;20041;-61
2023/04/09 01:13:16;;;;;;;11.57;7.78;;;;;9.40;99237.00;;;;5052337;28;20041;-60
2023/04/09 01:15:49;;;;;;;9.75;7.70;;;;;9.40;99235.00;;;;5053714;28;20051;-61
2023/04/09 01:18:28;;;;;;;10.93;7.72;;;;;9.40;99234.00;;;;5053494;28;20040;-61
2023/04/09 01:21:09;;;;;;;9.82;7.85;;;;;9.50;99232.00;;;;5051950;28;20067;-59
2023/04/09 01:23:57;;;;;;;10.07;7.00;;;;;9.70;99233.00;;;;5052070;28;20124;-60
2023/04/09 01:26:53;;;;;;;10.23;7.47;;;;;9.60;99231.00;;;;5052239;28;20052;-59
2023/04/09 01:29:24;;;;;;;11.82;8.23;;;;;9.60;99236.00;;;;5051851;28;20051;-60
2023/04/09 01:31:52;;;;;;;9.82;7.30;;;;;9.60;99233.00;;;;5053146;28;20052;-60
2023/04/09 01:34:20;;;;;;;10.65;8.40;;;;;9.60;99242.00;;;;5051903;28;20064;-59
2023/04/09 01:36:54;;;;;;;9.88;7.90;;;;;9.50;99241.00;;;;5053209;28;20044;-60
2023/04/09 01:39:21;;;;;;;11.60;8.68;;;;;9.50;99241.00;;;;5052804;28;20110;-60
2023/04/09 01:41:49;;;;;;;10.10;7.47;;;;;9.50;99232.00;;;;5051638;28;20041;-61
2023/04/09 01:44:18;;;;;;;8.90;7.10;;;;;9.50;99236.00;;;;5052905;28;20037;-60
2023/04/09 01:46:48;;;;;;;9.77;7.18;;;;;9.50;99243.00;;;;5051600;28;20071;-61
2023/04/09 01:49:16;;;;;;;9.00;6.82;;;;;9.50;99242.00;;;;5051307;28;20502;-60
2023/04/09 01:51:43;;;;;;;10.10;7.72;;;;;9.50;99230.00;;;;5051428;28;20041;-60
2023/04/09 01:54:09;;;;;;;11.07;6.75;;;;;9.40;99236.00;;;;5051836;28;20401;-59
2023/04/09 01:56:44;;;;;;;9.40;7.15;;;;;9.30;99234.00;;;;5051542;28;20441;-59
2023/04/09 01:59:11;;;;;;;10.75;7.22;;;;;9.40;99231.00;;;;5051797;28;20045;-59
2023/04/09 02:02:07;;;;;;;9.95;7.30;;;;;9.50;99226.00;;;;5051974;28;20120;-59
2023/04/09 02:04:45;;;;;;;9.65;7.00;;;;;9.40;99229.00;;;;5053422;28;20072;-59
2023/04/09 02:07:22;;;;;;;10.45;7.18;;;;;9.40;99233.00;;;;5053437;28;20041;-59
2023/04/09 02:09:52;;;;;;;10.82;7.85;;;;;9.40;99234.00;;;;5053092;28;20452;-60
2023/04/09 02:12:19;;;;;;;10.73;7.15;;;;;9.30;99231.00;;;;5051288;28;20041;-58
2023/04/09 02:14:50;;;;;;;10.48;7.55;;;;;9.20;99230.00;;;;5051111;28;20051;-59
2023/04/09 02:17:17;;;;;;;10.43;7.47;;;;;9.20;99232.00;;;;5052434;28;20047;-59
2023/04/09 02:19:45;;;;;;;9.93;7.55;;;;;9.30;99225.00;;;;5050810;28;20049;-59
2023/04/09 02:22:14;;;;;;;10.68;8.18;;;;;9.30;99237.00;;;;5034553;28;20048;-59
2023/04/09 02:24:40;;;;;;;10.35;7.80;;;;;9.30;99233.00;;;;5052328;28;20470;-60
2023/04/09 02:27:07;;;;;;;10.43;7.95;;;;;9.30;99226.00;;;;5052102;28;20067;-60
2023/04/09 02:29:34;;;;;;;11.07;8.48;;;;;9.20;99228.00;;;;5050987;28;20490;-59
2023/04/09 02:32:01;;;;;;;12.52;8.20;;;;;9.10;99236.00;;;;5051973;28;20119;-60
2023/04/09 02:34:27;;;;;;;9.10;6.90;;;;;9.30;99236.00;;;;5052182;28;20128;-60
2023/04/09 02:36:54;;;;;;;10.40;7.28;;;;;9.30;99231.00;;;;5051062;28;20131;-60
2023/04/09 02:39:20;;;;;;;10.38;7.53;;;;;9.30;99234.00;;;;5050642;28;20051;-60
2023/04/09 02:41:47;;;;;;;8.77;7.20;;;;;9.20;99232.00;;;;5050511;28;20049;-59
2023/04/09 02:44:14;;;;;;;12.52;8.27;;;;;9.30;99236.00;;;;5050908;28;20466;-60
2023/04/09 02:46:43;;;;;;;10.73;7.90;;;;;9.30;99230.00;;;;5050916;28;20047;-60
2023/04/09 02:49:09;;;;;;;12.00;8.07;;;;;9.20;99233.00;;;;5050855;28;20147;-60
2023/04/09 02:51:36;;;;;;;12.57;7.82;;;;;9.20;99237.00;;;;5051985;28;20053;-59
2023/04/09 02:54:02;;;;;;;11.65;8.00;;;;;9.20;99231.00;;;;5052140;28;20516;-59
2023/04/09 02:56:29;;;;;;;11.00;7.68;;;;;9.20;99232.00;;;;5050562;28;20505;-60
2023/04/09 02:58:56;;;;;;;11.10;7.63;;;;;9.30;99229.00;;;;5050407;28;20215;-60
2023/04/09 03:01:22;;;;;;;11.07;7.75;;;;;9.30;99232.00;;;;5050505;28;20041;-60
2023/04/09 03:03:49;;;;;;;12.45;8.48;;;;;9.20;99229.00;;;;5051825;28;20037;-60
2023/04/09 03:06:17;;;;;;;9.75;7.40;;;;;9.20;99230.00;;;;5050643;28;20136;-59
2023/04/09 03:08:44;;;;;;;11.52;8.30;;;;;9.20;99219.00;;;;5050286;28;20116;-60
2023/04/09 03:11:10;;;;;;;10.77;7.40;;;;;9.20;99227.00;;;;5051535;28;20635;-60
2023/04/09 03:13:37;;;;;;;11.82;8.40;;;;;9.10;99225.00;;;;5051735;28;20044;-60
2023/04/09 03:16:04;;;;;;;12.13;8.32;;;;;9.10;99217.00;;;;5050400;28;20041;-60
2023/04/09 03:18:31;;;;;;;12.60;8.38;;;;;9.00;99216.00;;;;5051463;28;20048;-60
2023/04/09 03:20:57;;;;;;;13.90;8.68;;;;;9.00;99219.00;;;;5051624;28;20051;-60
2023/04/09 03:23:26;;;;;;;12.02;7.97;;;;;9.10;99208.00;;;;5050343;28;20073;-60
2023/04/09 03:26:05;;;;;;;11.00;7.90;;;;;9.10;99214.00;;;;5050381;28;20057;-60
2023/04/09 03:28:42;;;;;;;12.35;8.18;;;;;9.10;99209.00;;;;5050106;28;20056;-60
2023/04/09 03:31:09;;;;;;;10.38;7.80;;;;;9.10;99216.00;;;;5050155;28;20045;-60
2023/04/09 03:33:38;;;;;;;11.93;8.40;;;;;9.00;99204.00;;;;5051749;28;20064;-60
2023/04/09 03:36:06;;;;;;;11.95;8.07;;;;;9.00;99210.00;;;;5050717;28;20045;-59
2023/04/09 03:38:53;;;;;;;10.80;8.10;;;;;8.80;99203.00;;;;5050124;28;20137;-60
2023/04/09 03:41:33;;;;;;;13.93;8.70;;;;;8.80;99202.00;;;;5051684;28;20456;-59
2023/04/09 03:44:03;;;;;;;11.88;8.32;;;;;8.80;99195.00;;;;5052425;28;20041;-59
2023/04/09 03:46:37;;;;;;;12.70;8.45;;;;;8.70;99202.00;;;;5053876;28;20076;-61
2023/04/09 03:49:07;;;;;;;13.60;8.82;;;;;8.70;99197.00;;;;5053851;28;20041;-60
2023/04/09 03:51:41;;;;;;;13.77;9.82;;;;;8.70;99195.00;;;;5055160;28;20539;-60
2023/04/09 03:54:07;;;;;;;13.05;8.77;;;;;8.60;99190.00;;;;5053742;28;20049;-60
2023/04/09 03:56:34;;;;;;;14.15;9.45;;;;;8.60;99193.00;;;;5055082;28;20120;-59
2023/04/09 03:59:03;;;;;;;15.50;8.68;;;;;8.50;99189.00;;;;5053289;28;20040;-60
2023/04/09 04:01:38;;;;;;;25.15;17.63;;;;;8.50;99190.00;;;;5053577;28;20049;-60
2023/04/09 04:04:05;;;;;;;19.27;12.88;;;;;8.50;99195.00;;;;5037117;28;20048;-60
2023/04/09 04:06:40;;;;;;;12.63;8.85;;;;;8.50;99196.00;;;;5053740;28;20053;-59
2023/04/09 04:09:25;;;;;;;13.30;9.05;;;;;8.40;99187.00;;;;5054475;28;20052;-59
2023/04/09 04:12:00;;;;;;;12.57;8.45;;;;;8.30;99185.00;;;;5053551;28;20132;-59
2023/04/09 04:14:42;;;;;;;13.15;8.77;;;;;8.30;99187.00;;;;5053374;28;20514;-60
2023/04/09 04:17:19;;;;;;;13.30;9.05;;;;;8.20;99183.00;;;;5053386;28;20535;-60
2023/04/09 04:19:47;;;;;;;12.95;8.75;;;;;8.10;99190.00;;;;5053143;28;20394;-60
2023/04/09 04:22:13;;;;;;;12.90;8.60;;;;;8.10;99190.00;;;;5053192;28;20048;-60
2023/04/09 04:24:44;;;;;;;13.18;8.93;;;;;8.00;99200.00;;;;5053274;28;20103;-62
2023/04/09 04:27:15;;;;;;;11.95;8.43;;;;;8.10;99196.00;;;;5053057;28;20052;-59
2023/04/09 04:29:41;;;;;;;15.30;9.20;;;;;8.00;99195.00;;;;5054215;28;20069;-59
2023/04/09 04:32:22;;;;;;;10.25;7.75;;;;;8.10;99193.00;;;;5053118;28;20076;-59
2023/04/09 04:34:50;;;;;;;12.02;8.38;;;;;8.10;99196.00;;;;5053144;28;20068;-60
2023/04/09 04:37:23;;;;;;;12.70;9.03;;;;;8.10;99196.00;;;;5053041;28;20132;-60
2023/04/09 04:39:54;;;;;;;13.20;8.82;;;;;8.00;99201.00;;;;5052715;28;20060;-60
2023/04/09 04:42:22;;;;;;;12.80;8.65;;;;;8.00;99204.00;;;;5052834;28;20099;-59
2023/04/09 04:44:48;;;;;;;12.73;8.88;;;;;8.00;99205.00;;;;5052826;28;20048;-60
2023/04/09 04:47:38;;;;;;;13.20;8.55;;;;;8.00;99207.00;;;;5052906;28;20055;-59
2023/04/09 04:50:05;;;;;;;12.10;8.77;;;;;7.90;99199.00;;;;5052537;28;20106;-59
2023/04/09 04:52:41;;;;;;;12.95;8.57;;;;;7.90;99202.00;;;;5052920;28;20044;-57
2023/04/09 04:55:08;;;;;;;12.65;9.10;;;;;7.80;99207.00;;;;5053563;28;20426;-59
2023/04/09 04:57:35;;;;;;;13.18;9.25;;;;;7.80;99207.00;;;;5052648;28;20055;-60
2023/04/09 05:00:02;;;;;;;12.30;8.15;;;;;7.70;99200.00;;;;5052271;28;20588;-60
2023/04/09 05:02:29;;;;;;;13.80;9.10;;;;;7.70;99197.00;;;;5052920;28;20379;-60
2023/04/09 05:05:13;;;;;;;14.68;9.25;;;;;7.70;99200.00;;;;5052994;28;20484;-60
2023/04/09 05:07:46;;;;;;;14.25;9.88;;;;;7.80;99208.00;;;;5052469;28;20044;-60
2023/04/09 05:10:13;;;;;;;13.25;8.95;;;;;7.80;99210.00;;;;5035673;28;20041;-60
2023/04/09 05:12:41;;;;;;;18.52;11.50;;;;;7.80;99202.00;;;;5052543;28;20132;-60
2023/04/09 05:15:11;;;;;;;18.02;10.77;;;;;7.90;99207.00;;;;5052523;28;20045;-60
2023/04/09 05:17:37;;;;;;;14.27;9.77;;;;;8.00;99213.00;;;;5052526;28;20053;-60
2023/04/09 05:20:06;;;;;;;16.73;10.32;;;;;8.10;99209.00;;;;5052025;28;20567;-60
2023/04/09 05:22:43;;;;;;;15.00;9.50;;;;;8.20;99212.00;;;;5052308;28;20454;-60
2023/04/09 05:25:10;;;;;;;15.38;9.82;;;;;8.30;99216.00;;;;5052698;28;20045;-61
2023/04/09 05:27:39;;;;;;;15.20;9.93;;;;;8.10;99213.00;;;;5052174;28;20044;-61
2023/04/09 05:30:07;;;;;;;12.55;8.85;;;;;8.00;99214.00;;;;5051847;28;20041;-60
2023/04/09 05:32:34;;;;;;;12.77;8.38;;;;;8.10;99217.00;;;;5052037;28;20045;-61
2023/04/09 05:35:01;;;;;;;13.65;9.38;;;;;8.20;99216.00;;;;5052069;28;20040;-60
2023/04/09 05:37:29;;;;;;;14.73;8.93;;;;;8.30;99220.00;;;;5051847;28;20040;-60
2023/04/09 05:39:56;;;;;;;13.50;8.88;;;;;8.40;99217.00;;;;5051590;28;20045;-61
2023/04/09 05:42:23;;;;;;;14.10;8.20;;;;;8.40;99224.00;;;;5051626;28;20095;-60
2023/04/09 05:45:01;;;;;;;16.52;11.10;;;;;8.40;99215.00;;;;5051711;28;20041;-61
2023/04/09 05:47:28;;;;;;;13.90;9.57;;;;;8.40;99216.00;;;;5052951;28;20402;-60
2023/04/09 05:50:06;;;;;;;15.57;10.00;;;;;8.30;99214.00;;;;5051323;28;20179;-60
2023/04/09 05:52:33;;;;;;;13.73;9.35;;;;;8.30;99217.00;;;;5051598;28;20215;-61
2023/04/09 05:55:00;;;;;;;15.80;10.05;;;;;8.40;99224.00;;;;5051607;28;20456;-61
2023/04/09 05:57:40;;;;;;;14.50;9.90;;;;;8.40;99223.00;;;;5052762;28;20078;-56
2023/04/09 06:00:07;;;;;;;13.40;9.48;;;;;8.40;99232.00;;;;5051189;28;20520;-55
2023/04/09 06:02:43;;;;;;;14.95;9.32;;;;;8.40;99237.00;;;;5052837;28;20059;-55
2023/04/09 06:05:10;;;;;;;13.77;9.43;;;;;8.50;99232.00;;;;5051364;28;20049;-56
2023/04/09 06:07:37;;;;;;;13.60;9.20;;;;;8.60;99227.00;;;;5050584;28;20102;-56
2023/04/09 06:10:04;;;;;;;13.45;9.10;;;;;8.70;99232.00;;;;5052125;28;20099;-55
2023/04/09 06:12:33;;;;;;;14.85;9.63;;;;;8.80;99238.00;;;;5052778;28;20060;-55
2023/04/09 06:14:59;;;;;;;15.15;10.05;;;;;8.80;99224.00;;;;5051633;28;20079;-56
2023/04/09 06:17:27;;;;;;;16.10;11.07;;;;;8.70;99228.00;;;;5051074;28;20045;-57
2023/04/09 06:19:54;;;;;;;19.05;11.68;;;;;8.70;99241.00;;;;5052018;28;20744;-56
2023/04/09 06:22:21;;;;;;;17.50;12.80;;;;;8.70;99232.00;;;;5052413;28;20071;-55
2023/04/09 06:24:47;;;;;;;14.38;9.65;;;;;8.80;99236.00;;;;5052192;28;20086;-60
2023/04/09 06:27:14;;;;;;;15.65;10.23;;;;;8.80;99230.00;;;;5052133;28;20497;-60
2023/04/09 06:29:40;;;;;;;13.85;9.05;;;;;8.90;99242.00;;;;5052287;28;20498;-58
2023/04/09 06:32:07;;;;;;;16.10;9.95;;;;;8.90;99240.00;;;;5052236;28;20049;-60
2023/04/09 06:34:34;;;;;;;15.15;11.25;;;;;8.90;99236.00;;;;5052284;28;20049;-60
2023/04/09 06:37:00;;;;;;;14.45;10.20;;;;;8.90;99235.00;;;;5052306;28;20045;-60
2023/04/09 06:39:27;;;;;;;18.52;12.50;;;;;8.90;99241.00;;;;5051951;28;20115;-59
2023/04/09 06:41:53;;;;;;;14.13;10.02;;;;;8.90;99246.00;;;;5051980;28;20065;-60
2023/04/09 06:44:35;;;;;;;14.45;9.32;;;;;9.00;99250.00;;;;5050760;28;20095;-61
2023/04/09 06:47:01;;;;;;;14.73;9.73;;;;;9.00;99245.00;;;;5052067;28;20045;-60
2023/04/09 06:49:28;;;;;;;13.65;9.88;;;;;9.10;99252.00;;;;5051972;28;20102;-60
2023/04/09 06:51:54;;;;;;;15.32;10.02;;;;;9.10;99253.00;;;;5051874;28;20504;-60
2023/04/09 06:54:21;;;;;;;14.38;9.63;;;;;9.20;99255.00;;;;5052045;28;20672;-60
2023/04/09 06:56:47;;;;;;;15.90;10.48;;;;;9.30;99258.00;;;;5052013;28;20049;-60
2023/04/09 06:59:15;;;;;;;16.38;11.27;;;;;9.40;99248.00;;;;5052166;28;20064;-60
2023/04/09 07:01:41;;;;;;;15.00;10.73;;;;;9.40;99246.00;;;;5052189;28;20045;-59
2023/04/09 07:04:08;;;;;;;18.02;11.48;;;;;9.40;99245.00;;;;5052029;28;20513;-60
2023/04/09 07:06:35;;;;;;;21.23;14.35;;;;;9.50;99247.00;;;;5052108;28;20120;-60
2023/04/09 07:09:02;;;;;;;17.05;12.55;;;;;9.60;99243.00;;;;5052422;28;20586;-61
2023/04/09 07:11:28;;;;;;;14.73;10.02;;;;;9.80;99250.00;;;;5052261;28;20045;-60
2023/04/09 07:13:55;;;;;;;17.20;12.23;;;;;10.00;99248.00;;;;5052332;28;20391;-61
2023/04/09 07:16:22;;;;;;;19.77;13.27;;;;;10.00;99251.00;;;;5052239;28;20045;-61
2023/04/09 07:18:49;;;;;;;17.55;10.55;;;;;10.10;99248.00;;;;5054062;28;20052;-61
2023/04/09 07:21:16;;;;;;;19.00;12.93;;;;;10.20;99250.00;;;;5054681;28;20095;-61
2023/04/09 07:23:42;;;;;;;15.85;11.02;;;;;10.30;99251.00;;;;5054855;28;20052;-56
2023/04/09 07:26:09;;;;;;;17.23;10.85;;;;;10.40;99260.00;;;;5055998;28;20106;-58
2023/04/09 07:28:35;;;;;;;14.70;10.27;;;;;10.60;99247.00;;;;5055526;28;20065;-56
2023/04/09 07:31:02;;;;;;;17.42;11.90;;;;;10.70;99251.00;;;;5056183;28;20379;-57
2023/04/09 07:33:30;;;;;;;15.07;10.80;;;;;10.70;99249.00;;;;5056049;28;20045;-60
2023/04/09 07:35:57;;;;;;;16.88;10.85;;;;;10.80;99257.00;;;;5054662;28;20057;-57
2023/04/09 07:38:23;;;;;;;14.75;10.65;;;;;10.70;99253.00;;;;5055637;28;20053;-57
2023/04/09 07:40:50;;;;;;;15.57;11.10;;;;;10.60;99255.00;;;;5055494;28;20041;-56
2023/04/09 07:43:17;;;;;;;16.48;10.63;;;;;10.70;99254.00;;;;5055737;28;20045;-56
2023/04/09 07:45:48;;;;;;;14.90;10.75;;;;;10.80;99255.00;;;;5056096;28;20698;-56
2023/04/09 07:48:14;;;;;;;17.40;10.98;;;;;10.80;99254.00;;;;5056313;28;20044;-57
2023/04/09 07:50:41;;;;;;;14.57;10.70;;;;;10.90;99243.00;;;;5053847;28;20072;-56
2023/04/09 07:53:08;;;;;;;13.93;10.52;;;;;11.00;99250.00;;;;5055067;28;20052;-57
2023/04/09 07:55:34;;;;;;;15.50;10.95;;;;;11.10;99250.00;;;;5055132;28;20087;-55
2023/04/09 07:58:02;;;;;;;14.73;9.80;;;;;11.20;99250.00;;;;5055085;28;20103;-56
2023/04/09 08:00:29;;;;;;;14.77;10.57;;;;;11.30;99250.00;;;;5054698;28;20076;-57
2023/04/09 08:02:56;;;;;;;14.30;10.13;;;;;11.40;99255.00;;;;5055138;28;20683;-57
2023/04/09 08:05:23;;;;;;;15.60;10.85;;;;;11.50;99257.00;;;;5055066;28;20068;-58
2023/04/09 08:07:50;;;;;;;15.10;10.50;;;;;11.60;99253.00;;;;5054915;28;20127;-58
2023/04/09 08:10:16;;;;;;;19.95;12.00;;;;;11.60;99256.00;;;;5054779;28;20045;-58
2023/04/09 08:12:43;;;;;;;15.93;10.73;;;;;11.80;99258.00;;;;5054905;28;20091;-59
2023/04/09 08:15:13;;;;;;;15.63;11.30;;;;;11.80;99263.00;;;;5054996;28;20047;-58
2023/04/09 08:17:39;;;;;;;14.43;10.10;;;;;11.80;99258.00;;;;5055026;28;20041;-58
2023/04/09 08:20:06;;;;;;;16.80;11.05;;;;;11.80;99259.00;;;;5055020;28;20480;-60
2023/04/09 08:22:33;;;;;;;16.13;11.13;;;;;11.80;99263.00;;;;5054835;28;20048;-59
2023/04/09 08:25:00;;;;;;;15.85;11.15;;;;;11.90;99254.00;;;;5053526;28;20044;-57
2023/04/09 08:27:28;;;;;;;16.05;11.27;;;;;12.00;99267.00;;;;5054805;28;20041;-58
2023/04/09 08:29:55;;;;;;;14.02;9.70;;;;;12.00;99261.00;;;;5053454;28;20453;-59
2023/04/09 08:32:21;;;;;;;15.25;9.85;;;;;12.10;99260.00;;;;5054908;28;20049;-58
2023/04/09 08:34:48;;;;;;;13.15;9.85;;;;;12.10;99265.00;;;;5055258;28;20052;-58
2023/04/09 08:37:15;;;;;;;20.85;14.60;;;;;12.10;99262.00;;;;5054694;28;20056;-59
2023/04/09 08:39:42;;;;;;;14.13;9.30;;;;;12.20;99264.00;;;;5052963;28;20413;-56
2023/04/09 08:42:11;;;;;;;14.32;10.45;;;;;12.20;99270.00;;;;5054134;28;20071;-58
2023/04/09 08:44:37;;;;;;;13.00;9.30;;;;;12.40;99269.00;;;;5054389;28;20051;-57
2023/04/09 08:47:10;;;;;;;13.90;8.93;;;;;12.50;99267.00;;;;5054186;28;20053;-57
2023/04/09 08:49:39;;;;;;;12.77;9.10;;;;;12.70;99270.00;;;;5054244;28;20436;-56
2023/04/09 08:52:06;;;;;;;12.55;8.55;;;;;12.70;99276.00;;;;5054028;28;20045;-57
2023/04/09 08:54:33;;;;;;;12.98;8.65;;;;;12.90;99274.00;;;;5054131;28;20452;-59
2023/04/09 08:57:04;;;;;;;11.38;7.10;;;;;13.00;99271.00;;;;5054017;28;20414;-55
2023/04/09 08:59:35;;;;;;;9.10;7.22;;;;;12.80;99266.00;;;;5053954;28;20118;-56
2023/04/09 09:02:09;;;;;;;11.02;7.93;;;;;13.10;99277.00;;;;5053871;28;20494;-57
2023/04/09 09:04:49;;;;;;;9.98;7.68;;;;;13.30;99272.00;;;;5053886;28;20041;-57
2023/04/09 09:07:16;;;;;;;7.40;6.00;;;;;13.40;99274.00;;;;5052456;28;20044;-58
2023/04/09 09:09:52;;;;;;;7.28;5.93;;;;;13.40;99267.00;;;;5053661;28;20379;-57
2023/04/09 09:12:37;;;;;;;8.77;6.25;;;;;13.70;99269.00;;;;5053669;28;20485;-58
2023/04/09 09:15:25;;;;;;;8.65;6.50;;;;;14.10;99273.00;;;;5052304;28;20049;-59
2023/04/09 09:17:55;;;;;;;7.40;5.38;;;;;14.50;99274.00;;;;5053710;28;20124;-58
2023/04/09 09:20:22;;;;;;;7.00;5.80;;;;;14.80;99267.00;;;;5052008;28;20045;-57
2023/04/09 09:22:50;;;;;;;6.80;5.50;;;;;14.90;99281.00;;;;5053416;28;20055;-57
2023/04/09 09:25:24;;;;;;;8.02;5.60;;;;;14.80;99279.00;;;;5053285;28;20115;-57
2023/04/09 09:27:52;;;;;;;8.38;5.70;;;;;14.70;99275.00;;;;5053373;28;20048;-57
2023/04/09 09:30:21;;;;;;;7.47;5.57;;;;;14.70;99270.00;;;;5051773;28;20049;-56
2023/04/09 09:33:07;;;;;;;6.70;5.18;;;;;14.60;99269.00;;;;5052462;28;20049;-56
2023/04/09 09:35:56;;;;;;;5.88;4.70;;;;;14.70;99268.00;;;;5053562;28;20405;-57
2023/04/09 09:38:23;;;;;;;4.97;4.28;;;;;15.00;99256.00;;;;5053230;28;20091;-59
2023/04/09 09:40:51;;;;;;;10.82;5.47;;;;;15.00;99248.00;;;;5052906;28;20524;-58
2023/04/09 09:43:17;;;;;;;8.15;6.50;;;;;15.20;99259.00;;;;5053050;28;20064;-56
2023/04/09 09:45:46;;;;;;;8.50;6.45;;;;;15.10;99267.00;;;;5051947;28;20037;-57
2023/04/09 09:48:14;;;;;;;7.22;5.57;;;;;14.90;99261.00;;;;5053090;28;20075;-56
2023/04/09 09:50:41;;;;;;;7.97;5.85;;;;;14.90;99257.00;;;;5052789;28;20037;-57
2023/04/09 09:53:10;;;;;;;6.13;5.30;;;;;14.90;99262.00;;;;5052981;28;20181;-58
2023/04/09 09:55:42;;;;;;;9.25;5.80;;;;;14.90;99255.00;;;;5053403;28;20049;-57
2023/04/09 09:58:16;;;;;;;6.53;5.45;;;;;15.00;99246.00;;;;5053423;28;20055;-57
2023/04/09 10:00:45;;;;;;;6.55;5.28;;;;;15.00;99251.00;;;;5034818;28;20049;-62
2023/04/09 10:03:20;;;;;;;6.45;5.32;;;;;15.00;99246.00;;;;5052746;28;20563;-60
2023/04/09 10:05:47;;;;;;;7.20;5.63;;;;;15.00;99250.00;;;;5052603;28;20041;-61
2023/04/09 10:08:15;;;;;;;7.30;5.50;;;;;15.00;99249.00;;;;5052848;28;20413;-59
2023/04/09 10:10:42;;;;;;;7.07;5.55;;;;;15.00;99247.00;;;;5052755;28;20442;-59
2023/04/09 10:13:20;;;;;;;7.90;5.90;;;;;15.00;99239.00;;;;5051783;28;20057;-60
2023/04/09 10:15:47;;;;;;;30.90;27.58;;;;;15.20;99244.00;;;;5052595;28;20040;-60
2023/04/09 10:18:15;;;;;;;73.68;37.83;;;;;15.40;99255.00;;;;5052576;28;20545;-60
2023/04/09 10:20:57;;;;;;;9.98;7.30;;;;;15.30;99246.00;;;;5052180;28;20045;-61
2023/04/09 10:23:37;;;;;;;49.28;26.23;;;;;15.20;99239.00;;;;5051180;28;20486;-61
2023/04/09 10:26:04;;;;;;;59.33;31.98;;;;;15.00;99238.00;;;;5051432;28;20052;-62
2023/04/09 10:28:31;;;;;;;156.35;76.93;;;;;14.90;99238.00;;;;5051964;28;20498;-60
2023/04/09 10:30:58;;;;;;;133.68;60.88;;;;;15.00;99241.00;;;;5052422;28;20045;-62
2023/04/09 10:33:26;;;;;;;67.15;32.67;;;;;15.00;99233.00;;;;5052418;28;20045;-61
2023/04/09 10:35:58;;;;;;;34.75;19.60;;;;;14.90;99228.00;;;;5052556;28;20041;-61
2023/04/09 10:38:36;;;;;;;56.97;31.63;;;;;14.90;99240.00;;;;5052502;28;20059;-59
2023/04/09 10:41:06;;;;;;;738.75;412.10;;;;;14.90;99233.00;;;;5052129;28;20044;-61
2023/04/09 10:43:36;;;;;;;64.90;31.20;;;;;15.10;99233.00;;;;5052246;28;20049;-61
2023/04/09 10:46:23;;;;;;;803.85;400.27;;;;;15.10;99225.00;;;;5052248;28;20482;-62
2023/04/09 10:49:06;;;;;;;37.25;17.92;;;;;15.20;99225.00;;;;5050910;28;20049;-61
2023/04/09 10:51:40;;;;;;;358.37;173.27;;;;;15.30;99230.00;;;;5052235;28;20544;-59
2023/04/09 10:54:32;;;;;;;72.25;34.20;;;;;15.20;99234.00;;;;5050356;28;20776;-57
2023/04/09 10:57:08;;;;;;;225.30;94.10;;;;;15.10;99232.00;;;;5049504;28;20061;-57
2023/04/09 10:59:43;;;;;;;351.08;148.55;;;;;15.20;99234.00;;;;5050871;28;20417;-56
2023/04/09 11:02:26;;;;;;;110.78;48.63;;;;;15.40;99230.00;;;;5052186;28;20053;-57
2023/04/09 11:05:11;;;;;;;465.92;192.13;;;;;15.70;99221.00;;;;5051891;28;20124;-59
2023/04/09 11:07:42;;;;;;;21.20;12.25;;;;;16.20;99229.00;;;;5052094;28;20045;-58
2023/04/09 11:10:09;;;;;;;703.83;387.20;;;;;16.40;99231.00;;;;5051675;28;20041;-57
2023/04/09 11:12:35;;;;;;;221.13;100.60;;;;;16.60;99229.00;;;;5050621;28;20052;-57
2023/04/09 11:15:02;;;;;;;344.90;173.77;;;;;16.60;99239.00;;;;5051821;28;20044;-60
2023/04/09 11:17:34;;;;;;;151.50;67.53;;;;;16.30;99234.00;;;;5050748;28;20052;-58
2023/04/09 11:20:02;;;;;;;50.67;23.02;;;;;16.10;99240.00;;;;5051592;28;20452;-56
2023/04/09 11:22:28;;;;;;;235.15;100.22;;;;;16.10;99234.00;;;;5051912;28;20045;-59
2023/04/09 11:24:55;;;;;;;477.77;223.98;;;;;16.10;99233.00;;;;5051493;28;20088;-58
2023/04/09 11:27:22;;;;;;;221.73;105.82;;;;;16.10;99234.00;;;;5051568;28;20076;-58
2023/04/09 11:29:54;;;;;;;55.58;27.20;;;;;15.90;99235.00;;;;5051408;28;20502;-59
2023/04/09 11:32:21;;;;;;;19.10;10.18;;;;;15.80;99226.00;;;;5051683;28;20494;-58
2023/04/09 11:34:47;;;;;;;216.80;109.72;;;;;15.70;99232.00;;;;5051669;28;20045;-61
2023/04/09 11:37:15;;;;;;;637.85;333.30;;;;;15.60;99233.00;;;;5050368;28;20559;-62
2023/04/09 11:39:45;;;;;;;548.55;248.50;;;;;15.60;99235.00;;;;5050303;28;20497;-61
2023/04/09 11:42:15;;;;;;;386.50;166.82;;;;;15.70;99225.00;;;;5051817;28;20045;-61
2023/04/09 11:44:44;;;;;;;186.02;78.68;;;;;15.90;99232.00;;;;5051739;28;20047;-61
2023/04/09 11:47:13;;;;;;;333.17;161.32;;;;;15.80;99231.00;;;;5051506;28;20054;-60
2023/04/09 11:49:40;;;;;;;380.00;179.85;;;;;15.90;99225.00;;;;5051635;28;20383;-61
2023/04/09 11:52:06;;;;;;;80.68;38.55;;;;;16.00;99216.00;;;;5051740;28;20045;-61
2023/04/09 11:54:33;;;;;;;641.75;333.95;;;;;16.00;99232.00;;;;5051776;28;20548;-61
2023/04/09 11:57:02;;;;;;;139.23;72.60;;;;;16.10;99231.00;;;;5051796;28;20048;-59
2023/04/09 11:59:29;;;;;;;435.15;212.32;;;;;16.10;99216.00;;;;5051344;28;20056;-60
2023/04/09 12:01:57;;;;;;;218.68;106.57;;;;;16.00;99224.00;;;;5051357;28;20055;-61
2023/04/09 12:04:24;;;;;;;391.80;186.07;;;;;16.00;99228.00;;;;5051316;28;20103;-60
2023/04/09 12:06:57;;;;;;;605.03;266.67;;;;;16.10;99217.00;;;;5054770;28;20048;-60
2023/04/09 12:09:24;;;;;;;427.75;204.85;;;;;16.20;99222.00;;;;5062796;28;20041;-60
2023/04/09 12:11:51;;;;;;;129.95;65.95;;;;;16.30;99221.00;;;;5066735;28;20489;-61
2023/04/09 12:14:20;;;;;;;218.60;103.88;;;;;16.60;99221.00;;;;5053789;28;20155;-61
2023/04/09 12:16:50;;;;;;;152.57;78.40;;;;;16.90;99220.00;;;;5053357;28;20049;-61
2023/04/09 12:19:19;;;;;;;1574.78;749.17;;;;;17.10;99225.00;;;;5054261;28;20083;-61
2023/04/09 12:21:53;;;;;;;56.55;31.00;;;;;17.10;99219.00;;;;5053632;28;20049;-61
2023/04/09 12:24:22;;;;;;;48.05;26.65;;;;;17.10;99218.00;;;;5054740;28;20049;-60